createdAt,value
2023-04-21T00:02:58.408Z,89.77
2023-04-21T00:07:57.263Z,90.02
2023-04-21T00:12:56.152Z,88.98
2023-04-21T00:17:55.264Z,87.95
2023-04-21T00:22:54.139Z,89.40
2023-04-21T00:27:53.097Z,91.56
2023-04-21T00:32:51.989Z,90.12
2023-04-21T00:37:50.948Z,89.34
2023-04-21T00:42:49.912Z,88.20
2023-04-21T00:47:48.843Z,92.33
2023-04-21T00:52:47.861Z,92.64
2023-04-21T00:57:46.765Z,90.78
2023-04-21T01:02:45.877Z,89.75
2023-04-21T01:07:44.643Z,88.96
2023-04-21T01:12:43.555Z,90.52
2023-04-21T01:17:42.551Z,91.75
2023-04-21T01:22:41.456Z,92.07
2023-04-21T01:27:40.451Z,89.28
2023-04-21T01:32:39.508Z,90.97
2023-04-21T01:37:38.320Z,89.11
2023-04-21T01:42:37.276Z,89.11
2023-04-21T01:47:36.200Z,88.07
2023-04-21T01:52:35.183Z,88.22
2023-04-21T01:57:34.083Z,88.67
2023-04-21T02:02:33.237Z,90.02
2023-04-21T02:07:32.015Z,91.16
2023-04-21T02:12:31.083Z,91.36
2023-04-21T02:17:30.186Z,90.53
2023-04-21T02:22:28.910Z,91.20
2023-04-21T02:27:27.974Z,92.85
2023-04-21T02:32:27.053Z,91.99
2023-04-21T02:37:25.670Z,91.57
2023-04-21T02:42:24.610Z,91.16
2023-04-21T02:47:23.583Z,89.86
2023-04-21T02:52:22.513Z,89.65
2023-04-21T02:57:21.451Z,90.41
2023-04-21T03:02:20.418Z,90.72
2023-04-21T03:07:19.356Z,89.79
2023-04-21T03:12:18.314Z,90.10
2023-04-21T03:17:17.241Z,91.03
2023-04-21T03:22:16.356Z,90.83
2023-04-21T03:27:15.162Z,90.62
2023-04-21T03:32:14.240Z,90.56
2023-04-21T03:37:13.084Z,90.25
2023-04-21T03:42:12.050Z,89.11
2023-04-21T03:47:10.966Z,89.15
2023-04-21T03:52:09.957Z,88.42
2023-04-21T03:57:08.842Z,90.02
2023-04-21T04:02:07.885Z,91.27
2023-04-21T04:07:06.916Z,89.81
2023-04-21T04:12:05.904Z,90.64
2023-04-21T04:17:04.901Z,91.89
2023-04-21T04:22:03.736Z,91.74
2023-04-21T04:27:02.748Z,90.08
2023-04-21T04:32:01.651Z,89.56
2023-04-21T04:37:00.486Z,89.67
2023-04-21T04:41:59.450Z,89.21
2023-04-21T04:46:58.466Z,89.00
2023-04-21T04:51:57.321Z,89.28
2023-04-21T04:56:56.256Z,90.83
2023-04-21T05:01:55.313Z,90.62
2023-04-21T05:06:54.452Z,90.41
2023-04-21T05:11:53.177Z,92.13
2023-04-21T05:16:52.174Z,92.55
2023-04-21T05:21:51.043Z,92.57
2023-04-21T05:26:50.075Z,90.33
2023-04-21T05:31:49.129Z,85.96
2023-04-21T05:36:48.048Z,82.47
2023-04-21T05:41:46.805Z,83.32
2023-04-21T05:46:45.796Z,79.75
2023-04-21T05:51:44.763Z,74.90
2023-04-21T05:56:43.720Z,71.53
2023-04-21T06:01:42.812Z,73.77
2023-04-21T06:06:41.658Z,75.17
2023-04-21T06:11:40.507Z,78.75
2023-04-21T06:16:39.568Z,80.05
2023-04-21T06:21:38.441Z,80.88
2023-04-21T06:26:37.416Z,81.79
2023-04-21T06:31:36.556Z,81.08
2023-04-21T06:36:35.277Z,81.45
2023-04-21T06:41:34.229Z,80.19
2023-04-21T06:46:33.241Z,78.45
2023-04-21T06:51:32.249Z,77.01
2023-04-21T06:56:31.099Z,77.29
2023-04-21T07:01:30.106Z,77.25
2023-04-21T07:06:29.175Z,76.29
2023-04-21T07:11:27.902Z,73.40
2023-04-21T07:16:27.089Z,73.71
2023-04-21T07:21:25.812Z,72.75
2023-04-21T07:26:24.706Z,73.23
2023-04-21T07:31:23.773Z,74.01
2023-04-21T07:36:22.681Z,72.04
2023-04-21T07:41:21.687Z,70.10
2023-04-21T07:46:20.564Z,68.85
2023-04-21T07:51:19.532Z,68.51
2023-04-21T07:56:18.474Z,67.26
2023-04-21T08:01:17.430Z,67.22
2023-04-21T08:06:16.511Z,66.99
2023-04-21T08:11:15.483Z,65.33
2023-04-21T08:16:14.437Z,65.99
2023-04-21T08:21:13.246Z,64.67
2023-04-21T08:26:12.172Z,60.78
2023-04-21T08:31:11.192Z,61.97
2023-04-21T08:36:18.219Z,59.68
2023-04-21T08:41:09.226Z,58.36
2023-04-21T08:46:08.060Z,57.53
2023-04-21T08:51:06.842Z,58.41
2023-04-21T09:01:05.056Z,56.26
2023-04-21T09:06:03.950Z,53.50
2023-04-21T09:11:02.712Z,54.38
2023-04-21T09:16:01.660Z,56.61
2023-04-21T09:21:00.581Z,54.96
2023-04-21T09:25:59.612Z,52.31
2023-04-21T09:30:58.687Z,51.61
2023-04-21T09:35:57.443Z,53.40
2023-04-21T09:40:56.453Z,49.64
2023-04-21T09:45:55.347Z,47.62
2023-04-21T09:51:24.183Z,46.39
2023-04-21T09:55:53.216Z,47.50
2023-04-21T10:00:52.271Z,44.25
2023-04-21T10:05:51.072Z,45.66
2023-04-21T10:10:49.947Z,42.41
2023-04-21T10:15:48.976Z,41.91
2023-04-21T10:20:47.870Z,41.89
2023-04-21T10:25:46.798Z,42.90
2023-04-21T10:30:45.774Z,43.40
2023-04-21T10:35:44.754Z,41.57
2023-04-21T10:40:44.741Z,41.75
2023-04-21T10:45:42.598Z,41.15
2023-04-21T10:50:41.535Z,41.45
2023-04-21T10:55:40.503Z,39.72
2023-04-21T11:00:39.590Z,38.62
2023-04-21T11:05:38.667Z,41.95
2023-04-21T11:10:37.355Z,38.21
2023-04-21T11:15:36.350Z,34.89
2023-04-21T11:20:35.215Z,36.50
2023-04-21T11:25:34.191Z,36.72
2023-04-21T11:30:33.135Z,36.52
2023-04-21T11:35:32.154Z,34.09
2023-04-21T11:40:31.228Z,35.82
2023-04-21T11:45:30.041Z,35.39
2023-04-21T11:50:28.908Z,36.11
2023-04-21T11:55:27.897Z,37.24
2023-04-21T12:00:26.816Z,37.10
2023-04-21T12:05:25.924Z,36.49
2023-04-21T12:10:24.849Z,37.39
2023-04-21T12:15:23.800Z,38.42
2023-04-21T12:20:22.803Z,37.21
2023-04-21T12:25:21.763Z,35.98
2023-04-21T12:30:20.691Z,37.59
2023-04-21T12:35:19.585Z,37.41
2023-04-21T12:40:18.701Z,36.08
2023-04-21T12:45:17.536Z,35.66
2023-04-21T12:50:16.433Z,36.15
2023-04-21T12:55:15.421Z,35.25
2023-04-21T13:00:14.332Z,32.21
2023-04-21T13:05:13.171Z,32.43
2023-04-21T13:10:12.343Z,32.72
2023-04-21T13:15:11.122Z,31.53
2023-04-21T13:20:10.387Z,34.73
2023-04-21T13:25:09.118Z,33.54
2023-04-21T13:30:08.044Z,33.34
2023-04-21T13:35:07.201Z,32.82
2023-04-21T13:40:06.347Z,32.21
2023-04-21T13:45:04.760Z,30.81
2023-04-21T13:50:03.719Z,31.63
2023-04-21T13:55:02.835Z,33.86
2023-04-21T14:00:02.192Z,35.25
2023-04-21T14:05:00.848Z,33.72
2023-04-21T14:09:59.485Z,34.83
2023-04-21T14:14:58.412Z,34.31
2023-04-21T14:19:57.626Z,34.22
2023-04-21T14:24:56.642Z,33.72
2023-04-21T14:29:55.468Z,36.54
2023-04-21T14:34:54.452Z,33.72
2023-04-21T14:39:53.290Z,34.76
2023-04-21T14:44:52.485Z,37.27
2023-04-21T14:49:52.722Z,35.35
2023-04-21T14:54:50.398Z,34.94
2023-04-21T14:59:48.959Z,34.24
2023-04-21T15:04:48.069Z,34.74
2023-04-21T15:09:46.826Z,35.14
2023-04-21T15:14:45.956Z,35.55
2023-04-21T15:19:44.862Z,35.46
2023-04-21T15:24:43.880Z,33.75
2023-04-21T15:29:42.827Z,35.77
2023-04-21T15:34:41.730Z,34.76
2023-04-21T15:39:40.763Z,33.95
2023-04-21T15:44:39.708Z,33.95
2023-04-21T15:49:38.745Z,35.77
2023-04-21T15:54:37.723Z,35.58
2023-04-21T15:59:36.519Z,33.87
2023-04-21T16:04:36.040Z,34.27
2023-04-21T16:09:34.482Z,34.98
2023-04-21T16:14:46.539Z,35.58
2023-04-21T16:19:32.172Z,35.50
2023-04-21T16:24:31.251Z,34.29
2023-04-21T16:29:30.257Z,35.19
2023-04-21T16:34:29.042Z,34.89
2023-04-21T16:39:28.029Z,35.11
2023-04-21T16:44:26.948Z,35.51
2023-04-21T16:49:25.902Z,37.12
2023-04-21T16:54:24.804Z,36.94
2023-04-21T16:59:23.740Z,35.43
2023-04-21T17:04:22.805Z,36.24
2023-04-21T17:09:21.653Z,36.66
2023-04-21T17:14:20.677Z,37.56
2023-04-21T17:19:19.515Z,37.26
2023-04-21T17:24:18.456Z,37.58
2023-04-21T17:29:17.442Z,37.98
2023-04-21T17:34:16.353Z,38.30
2023-04-21T17:39:15.333Z,38.40
2023-04-21T17:44:14.240Z,38.93
2023-04-21T17:49:13.231Z,39.13
2023-04-21T17:54:12.201Z,39.75
2023-04-21T17:59:11.095Z,40.25
2023-04-21T18:04:10.243Z,40.88
2023-04-21T18:09:08.961Z,41.20
2023-04-21T18:14:08.049Z,41.32
2023-04-21T18:19:06.901Z,42.13
2023-04-21T18:24:05.853Z,42.66
2023-04-21T18:29:04.799Z,41.95
2023-04-21T18:34:03.981Z,42.35
2023-04-21T18:39:02.702Z,43.08
2023-04-21T18:44:01.711Z,43.30
2023-04-21T18:49:00.593Z,44.64
2023-04-21T18:53:59.548Z,45.35
2023-04-21T18:58:58.484Z,45.98
2023-04-21T19:03:57.585Z,45.87
2023-04-21T19:08:56.380Z,46.00
2023-04-21T19:13:55.447Z,46.10
2023-04-21T19:18:54.292Z,46.61
2023-04-21T19:23:53.216Z,46.73
2023-04-21T19:28:52.127Z,47.24
2023-04-21T19:33:51.138Z,47.46
2023-04-21T19:38:50.083Z,47.89
2023-04-21T19:43:49.120Z,47.69
2023-04-21T19:48:47.986Z,48.30
2023-04-21T19:53:53.534Z,48.72
2023-04-21T19:58:45.820Z,51.06
2023-04-21T20:03:44.895Z,52.63
2023-04-21T20:08:43.793Z,53.67
2023-04-21T20:13:42.650Z,53.19
2023-04-21T20:18:41.631Z,53.72
2023-04-21T20:23:40.521Z,53.42
2023-04-21T20:28:39.491Z,54.24
2023-04-21T20:33:38.551Z,54.77
2023-04-21T20:38:37.375Z,54.05
2023-04-21T20:43:36.370Z,54.36
2023-04-21T20:48:35.343Z,54.46
2023-04-21T20:53:34.242Z,55.30
2023-04-21T20:58:33.314Z,55.00
2023-04-21T21:03:32.262Z,54.79
2023-04-21T21:08:31.259Z,54.61
2023-04-21T21:13:30.033Z,55.13
2023-04-21T21:18:29.024Z,54.92
2023-04-21T21:23:27.979Z,56.45
2023-04-21T21:28:27.320Z,56.88
2023-04-21T21:33:25.793Z,58.14
2023-04-21T21:38:24.858Z,58.98
2023-04-21T21:43:23.835Z,59.92
2023-04-21T21:48:22.840Z,60.97
2023-04-21T21:53:21.758Z,61.72
2023-04-21T21:58:20.640Z,61.95
2023-04-21T22:03:19.746Z,61.54
2023-04-21T22:08:18.517Z,61.54
2023-04-21T22:13:17.420Z,61.03
2023-04-21T22:18:16.334Z,62.05
2023-04-21T22:23:15.304Z,62.29
2023-04-21T22:28:14.304Z,63.13
2023-04-21T22:33:13.425Z,64.36
2023-04-21T22:38:12.149Z,65.31
2023-04-21T22:43:11.166Z,65.96
2023-04-21T22:48:10.248Z,66.06
2023-04-21T22:53:09.083Z,66.19
2023-04-21T22:58:07.997Z,66.81
2023-04-21T23:03:07.078Z,68.48
2023-04-21T23:08:05.922Z,68.00
2023-04-21T23:13:04.834Z,69.88
2023-04-21T23:18:03.896Z,71.35
2023-04-21T23:23:02.722Z,71.45
2023-04-21T23:28:01.705Z,71.79
2023-04-21T23:33:00.854Z,71.17
2023-04-21T23:37:59.644Z,71.08
2023-04-21T23:42:58.525Z,70.87
2023-04-21T23:47:57.497Z,72.13
2023-04-21T23:52:56.486Z,73.36
2023-04-21T23:57:55.502Z,71.89
